Time;durP1;ratioP1;P1;durP2;ratioP2;P2;SDS_P1;SDS_P2;PMS_P1;PMS_P2;Temp;Humidity;BMP_temperature;BMP_pressure;BME280_temperature;BME280_humidity;BME280_pressure;Samples;Min_cycle;Max_cycle;Signal;HPM_P1;HPM_P2
2021/10/29 00:00:36;;;;;;;46.35;32.65;;;;;;;;;;4881354;29;20506;-89
2021/10/29 00:03:06;;;;;;;46.60;31.65;;;;;;;;;;4880069;29;20025;-90
2021/10/29 00:05:33;;;;;;;43.55;32.92;;;;;;;;;;4880597;29;20119;-89
2021/10/29 00:08:00;;;;;;;40.08;30.17;;;;;;;;;;4880404;29;20033;-89
2021/10/29 00:10:26;;;;;;;44.58;32.78;;;;;;;;;;4880250;29;20066;-89
2021/10/29 00:12:52;;;;;;;44.50;31.65;;;;;;;;;;4880742;29;20021;-89
2021/10/29 00:15:19;;;;;;;41.63;31.58;;;;;;;;;;4880381;29;20036;-89
2021/10/29 00:17:45;;;;;;;42.28;31.85;;;;;;;;;;4879872;29;20040;-89
2021/10/29 00:20:11;;;;;;;41.10;30.80;;;;;;;;;;4880079;29;20040;-89
2021/10/29 00:22:38;;;;;;;45.20;31.98;;;;;;;;;;4864293;29;20056;-89
2021/10/29 00:25:04;;;;;;;42.58;32.08;;;;;;;;;;4879916;29;20495;-89
2021/10/29 00:27:31;;;;;;;44.00;33.08;;;;;;;;;;4864427;29;20041;-89
2021/10/29 00:29:57;;;;;;;41.90;30.77;;;;;;;;;;4879585;29;20063;-90
2021/10/29 00:32:24;;;;;;;41.97;31.42;;;;;;;;;;4863608;29;20452;-90
2021/10/29 00:34:50;;;;;;;41.25;29.88;;;;;;;;;;4863524;29;20036;-90
2021/10/29 00:37:16;;;;;;;43.65;32.33;;;;;;;;;;4880452;29;20037;-90
2021/10/29 00:39:43;;;;;;;41.88;32.67;;;;;;;;;;4880252;29;20025;-90
2021/10/29 00:42:09;;;;;;;45.75;33.10;;;;;;;;;;4880918;29;20033;-90
2021/10/29 00:44:35;;;;;;;46.72;31.92;;;;;;;;;;4880433;29;20044;-90
2021/10/29 00:47:01;;;;;;;45.38;32.20;;;;;;;;;;4879955;29;20036;-90
2021/10/29 00:49:27;;;;;;;43.83;32.08;;;;;;;;;;4863368;29;20388;-90
2021/10/29 00:51:53;;;;;;;45.25;32.85;;;;;;;;;;4863122;29;20025;-90
2021/10/29 00:54:20;;;;;;;44.30;31.70;;;;;;;;;;4863835;29;20048;-90
2021/10/29 00:56:47;;;;;;;42.85;30.20;;;;;;;;;;4864368;29;20037;-90
2021/10/29 00:59:13;;;;;;;42.50;31.50;;;;;;;;;;4863878;29;20025;-90
2021/10/29 01:01:39;;;;;;;44.00;30.95;;;;;;;;;;4879594;29;20480;-90
2021/10/29 01:04:05;;;;;;;44.38;31.27;;;;;;;;;;4878769;29;20033;-90
2021/10/29 01:06:32;;;;;;;43.15;31.80;;;;;;;;;;4880011;29;20033;-90
2021/10/29 01:08:59;;;;;;;41.08;30.92;;;;;;;;;;4879739;29;20510;-91
2021/10/29 01:11:26;;;;;;;42.22;31.25;;;;;;;;;;4879637;29;20029;-91
2021/10/29 01:13:52;;;;;;;39.83;29.55;;;;;;;;;;4863327;29;20033;-92
2021/10/29 01:16:19;;;;;;;40.92;30.33;;;;;;;;;;4863269;29;20087;-90
2021/10/29 01:18:46;;;;;;;44.42;31.52;;;;;;;;;;4862926;29;20037;-91
2021/10/29 01:21:12;;;;;;;39.40;29.25;;;;;;;;;;4863052;29;20045;-90
2021/10/29 01:23:38;;;;;;;41.30;31.48;;;;;;;;;;4862726;29;20033;-91
2021/10/29 01:26:06;;;;;;;40.33;30.35;;;;;;;;;;4862979;29;20085;-90
2021/10/29 01:28:32;;;;;;;44.17;30.80;;;;;;;;;;4862723;29;20116;-91
2021/10/29 01:30:58;;;;;;;45.33;31.48;;;;;;;;;;4863019;29;20040;-91
2021/10/29 01:33:24;;;;;;;41.05;30.70;;;;;;;;;;4879285;29;20037;-91
2021/10/29 01:35:50;;;;;;;46.13;31.40;;;;;;;;;;4862846;29;20064;-91
2021/10/29 01:38:16;;;;;;;41.88;29.02;;;;;;;;;;4879449;29;20447;-91
2021/10/29 01:40:43;;;;;;;40.08;29.98;;;;;;;;;;4862912;29;20026;-90
2021/10/29 01:43:09;;;;;;;38.63;29.67;;;;;;;;;;4862441;29;20084;-90
2021/10/29 01:45:35;;;;;;;43.28;30.00;;;;;;;;;;4878398;29;20032;-90
2021/10/29 01:48:01;;;;;;;42.90;30.00;;;;;;;;;;4878049;29;20033;-90
2021/10/29 01:50:28;;;;;;;40.50;30.20;;;;;;;;;;4878332;29;20423;-90
2021/10/29 01:52:54;;;;;;;38.45;28.50;;;;;;;;;;4878174;29;20025;-90
2021/10/29 01:55:20;;;;;;;42.20;30.52;;;;;;;;;;4878207;29;20033;-90
2021/10/29 01:57:46;;;;;;;39.80;28.20;;;;;;;;;;4878068;29;20407;-90
2021/10/29 02:00:13;;;;;;;42.50;28.70;;;;;;;;;;4862638;29;20029;-90
2021/10/29 02:02:40;;;;;;;39.65;28.52;;;;;;;;;;4877749;29;20031;-90
2021/10/29 02:05:07;;;;;;;42.60;30.45;;;;;;;;;;4880301;29;20033;-90
2021/10/29 02:07:34;;;;;;;41.88;29.60;;;;;;;;;;4882916;29;20029;-90
2021/10/29 02:10:00;;;;;;;38.55;29.05;;;;;;;;;;4866273;29;20116;-90
2021/10/29 02:12:27;;;;;;;41.10;29.88;;;;;;;;;;4882854;29;20081;-90
2021/10/29 02:14:53;;;;;;;40.33;27.60;;;;;;;;;;4881512;29;20059;-90
2021/10/29 02:17:19;;;;;;;41.13;29.63;;;;;;;;;;4865886;29;20062;-90
2021/10/29 02:19:45;;;;;;;40.50;29.23;;;;;;;;;;4865876;29;20483;-90
2021/10/29 02:22:11;;;;;;;43.50;30.20;;;;;;;;;;4866171;29;20040;-90
2021/10/29 02:24:37;;;;;;;43.55;30.75;;;;;;;;;;4865786;29;20021;-90
2021/10/29 02:27:04;;;;;;;38.47;28.33;;;;;;;;;;4881323;29;20029;-90
2021/10/29 02:29:30;;;;;;;40.55;29.27;;;;;;;;;;4881515;29;20021;-90
2021/10/29 02:31:56;;;;;;;42.38;29.67;;;;;;;;;;4882496;29;20033;-90
2021/10/29 02:34:22;;;;;;;40.75;28.05;;;;;;;;;;4881075;29;20116;-90
2021/10/29 02:36:48;;;;;;;44.78;30.17;;;;;;;;;;4881264;29;20044;-90
2021/10/29 02:39:14;;;;;;;41.40;29.35;;;;;;;;;;4881142;29;20495;-90
2021/10/29 02:41:40;;;;;;;40.75;28.83;;;;;;;;;;4881361;29;20056;-90
2021/10/29 02:44:06;;;;;;;41.97;28.83;;;;;;;;;;4880834;29;20399;-90
2021/10/29 02:46:32;;;;;;;40.25;29.20;;;;;;;;;;4865364;29;20119;-90
2021/10/29 02:48:58;;;;;;;40.15;29.30;;;;;;;;;;4865442;29;20395;-90
2021/10/29 02:51:25;;;;;;;42.47;29.90;;;;;;;;;;4865950;29;20372;-90
2021/10/29 02:53:52;;;;;;;44.20;30.80;;;;;;;;;;4883071;29;20025;-90
2021/10/29 02:56:18;;;;;;;43.70;30.45;;;;;;;;;;4882388;29;20025;-90
2021/10/29 02:58:44;;;;;;;43.75;28.70;;;;;;;;;;4881355;29;20059;-90
2021/10/29 03:01:10;;;;;;;42.25;29.50;;;;;;;;;;4882238;29;20041;-90
2021/10/29 03:03:36;;;;;;;40.78;28.63;;;;;;;;;;4887406;29;20033;-90
2021/10/29 03:06:03;;;;;;;42.17;28.08;;;;;;;;;;4882144;29;20506;-90
2021/10/29 03:08:29;;;;;;;43.60;28.80;;;;;;;;;;4882102;29;20432;-90
2021/10/29 03:10:55;;;;;;;44.88;29.73;;;;;;;;;;4882309;29;20025;-90
2021/10/29 03:13:22;;;;;;;42.65;29.42;;;;;;;;;;4880429;29;20025;-89
2021/10/29 03:15:49;;;;;;;37.75;27.50;;;;;;;;;;4881633;29;20036;-90
2021/10/29 03:18:15;;;;;;;42.60;29.73;;;;;;;;;;4882771;29;20032;-90
2021/10/29 03:20:41;;;;;;;42.17;30.38;;;;;;;;;;4883240;29;20029;-90
2021/10/29 03:23:08;;;;;;;42.67;28.52;;;;;;;;;;4883148;29;20036;-90
2021/10/29 03:25:34;;;;;;;40.53;28.73;;;;;;;;;;4880366;29;20455;-91
2021/10/29 03:28:00;;;;;;;41.85;30.05;;;;;;;;;;4864948;29;20033;-90
2021/10/29 03:30:28;;;;;;;40.30;28.50;;;;;;;;;;4864937;29;20089;-91
2021/10/29 03:32:56;;;;;;;41.30;29.30;;;;;;;;;;4865068;29;20028;-90
2021/10/29 03:35:23;;;;;;;46.08;30.73;;;;;;;;;;4881511;29;20053;-91
2021/10/29 03:45:51;;;;;;;43.20;29.98;;;;;;;;;;4881092;29;20037;-90
2021/10/29 03:48:19;;;;;;;39.65;26.85;;;;;;;;;;4881598;29;20049;-90
2021/10/29 03:50:55;;;;;;;43.28;29.67;;;;;;;;;;4881469;29;20407;-91
2021/10/29 03:53:29;;;;;;;42.92;29.17;;;;;;;;;;4890201;29;20032;-90
2021/10/29 03:55:58;;;;;;;45.70;29.27;;;;;;;;;;4888732;29;20096;-90
2021/10/29 03:58:24;;;;;;;47.92;30.38;;;;;;;;;;4905055;29;20014;-89
2021/10/29 04:00:50;;;;;;;44.22;31.00;;;;;;;;;;4888282;29;20069;-88
2021/10/29 04:03:16;;;;;;;40.92;29.25;;;;;;;;;;4883024;29;20376;-90
2021/10/29 04:05:42;;;;;;;46.97;29.45;;;;;;;;;;4900154;29;20029;-91
2021/10/29 04:08:10;;;;;;;42.38;29.45;;;;;;;;;;4883557;29;20033;-91
2021/10/29 04:10:41;;;;;;;45.47;28.92;;;;;;;;;;4882517;29;20057;-90
2021/10/29 04:13:10;;;;;;;45.72;30.55;;;;;;;;;;4880285;29;20025;-91
2021/10/29 04:15:40;;;;;;;46.90;28.30;;;;;;;;;;4881829;29;20108;-89
2021/10/29 04:18:07;;;;;;;40.03;27.70;;;;;;;;;;4865286;29;20033;-90
2021/10/29 04:20:34;;;;;;;41.50;28.80;;;;;;;;;;4864656;29;20028;-89
2021/10/29 04:23:00;;;;;;;39.80;27.67;;;;;;;;;;4864282;29;20065;-90
2021/10/29 04:25:26;;;;;;;41.97;28.77;;;;;;;;;;4864869;29;20045;-91
2021/10/29 04:27:58;;;;;;;42.30;29.80;;;;;;;;;;4863475;29;20033;-90
2021/10/29 04:30:27;;;;;;;42.22;28.45;;;;;;;;;;4880804;29;20028;-90
2021/10/29 04:32:53;;;;;;;45.03;30.58;;;;;;;;;;4863874;29;20476;-90
2021/10/29 04:35:19;;;;;;;42.58;29.05;;;;;;;;;;4863673;29;20052;-90
2021/10/29 04:37:45;;;;;;;45.22;29.73;;;;;;;;;;4879687;29;20033;-90
2021/10/29 04:40:11;;;;;;;44.42;31.50;;;;;;;;;;4879620;29;20079;-91
2021/10/29 04:42:38;;;;;;;46.28;30.48;;;;;;;;;;4880722;29;20043;-91
2021/10/29 04:45:05;;;;;;;45.22;29.25;;;;;;;;;;4878814;29;20373;-91
2021/10/29 04:47:31;;;;;;;45.20;29.58;;;;;;;;;;4880423;29;20056;-91
2021/10/29 04:49:57;;;;;;;50.70;30.75;;;;;;;;;;4879071;29;20120;-91
2021/10/29 04:52:23;;;;;;;41.90;27.50;;;;;;;;;;4863726;29;20057;-90
2021/10/29 04:54:50;;;;;;;41.13;28.08;;;;;;;;;;4863218;29;20024;-91
2021/10/29 04:57:16;;;;;;;42.17;28.10;;;;;;;;;;4879136;29;20403;-91
2021/10/29 04:59:42;;;;;;;42.95;28.73;;;;;;;;;;4878664;29;20178;-90
2021/10/29 05:02:08;;;;;;;39.65;27.90;;;;;;;;;;4880222;29;20512;-90
2021/10/29 05:04:34;;;;;;;38.80;26.85;;;;;;;;;;4878953;29;20060;-91
2021/10/29 05:07:00;;;;;;;40.42;28.80;;;;;;;;;;4880126;29;20103;-91
2021/10/29 05:09:26;;;;;;;41.60;28.15;;;;;;;;;;4878989;29;20120;-91
2021/10/29 05:11:52;;;;;;;41.00;27.88;;;;;;;;;;4879278;29;20025;-91
2021/10/29 05:14:18;;;;;;;44.13;28.58;;;;;;;;;;4878655;29;20025;-90
2021/10/29 05:16:45;;;;;;;42.47;29.27;;;;;;;;;;4879043;29;20025;-91
2021/10/29 05:19:11;;;;;;;45.58;30.50;;;;;;;;;;4863162;29;20025;-91
2021/10/29 05:21:37;;;;;;;45.15;29.70;;;;;;;;;;4863176;29;20051;-91
2021/10/29 05:24:03;;;;;;;46.65;30.30;;;;;;;;;;4863213;29;20029;-91
2021/10/29 05:26:29;;;;;;;42.58;30.70;;;;;;;;;;4878975;29;20029;-91
2021/10/29 05:28:55;;;;;;;47.58;32.17;;;;;;;;;;4878394;29;20093;-91
2021/10/29 05:31:21;;;;;;;50.92;33.67;;;;;;;;;;4878548;29;20081;-90
2021/10/29 05:33:47;;;;;;;52.15;32.55;;;;;;;;;;4878610;29;20440;-91
2021/10/29 05:36:13;;;;;;;47.55;32.70;;;;;;;;;;4879924;29;20025;-91
2021/10/29 05:38:39;;;;;;;59.35;35.95;;;;;;;;;;4879019;29;20029;-91
2021/10/29 05:41:05;;;;;;;50.45;32.78;;;;;;;;;;4884174;29;20029;-91
2021/10/29 05:43:31;;;;;;;55.80;35.30;;;;;;;;;;4883714;29;20459;-91
2021/10/29 05:45:57;;;;;;;53.47;34.38;;;;;;;;;;4883285;29;20029;-91
2021/10/29 05:48:24;;;;;;;49.58;33.55;;;;;;;;;;4866612;29;20060;-91
2021/10/29 05:50:50;;;;;;;53.53;36.17;;;;;;;;;;4866683;29;20025;-90
2021/10/29 05:53:36;;;;;;;53.20;34.67;;;;;;;;;;4866650;29;20514;-90
2021/10/29 05:56:03;;;;;;;52.20;33.47;;;;;;;;;;4866421;29;20021;-91
2021/10/29 05:58:29;;;;;;;57.55;35.88;;;;;;;;;;4866661;29;20384;-90
2021/10/29 06:00:55;;;;;;;52.25;36.08;;;;;;;;;;4866460;29;20040;-91
2021/10/29 06:03:21;;;;;;;54.38;35.45;;;;;;;;;;4866384;29;20040;-91
2021/10/29 06:05:47;;;;;;;52.55;35.42;;;;;;;;;;4865489;29;20033;-91
2021/10/29 06:08:13;;;;;;;52.28;34.05;;;;;;;;;;4866831;29;20033;-91
2021/10/29 06:10:40;;;;;;;51.92;34.45;;;;;;;;;;4866580;29;20077;-90
2021/10/29 06:13:06;;;;;;;53.35;35.13;;;;;;;;;;4866781;29;20037;-91
2021/10/29 06:15:35;;;;;;;50.72;34.05;;;;;;;;;;4866462;29;20506;-91
2021/10/29 06:18:01;;;;;;;50.10;34.60;;;;;;;;;;4866185;29;20037;-91
2021/10/29 06:20:37;;;;;;;52.70;34.95;;;;;;;;;;4866516;29;20059;-91
2021/10/29 06:23:06;;;;;;;49.33;34.50;;;;;;;;;;4867830;29;20072;-90
2021/10/29 06:25:41;;;;;;;52.42;34.63;;;;;;;;;;4864507;29;20033;-90
2021/10/29 06:31:02;;;;;;;51.38;34.15;;;;;;;;;;4833145;29;20078;-90
2021/10/29 06:33:29;;;;;;;49.90;33.28;;;;;;;;;;4811098;29;20038;-90
2021/10/29 06:35:55;;;;;;;46.25;32.38;;;;;;;;;;4809964;29;20413;-90
2021/10/29 06:38:22;;;;;;;49.67;31.65;;;;;;;;;;4810761;29;20035;-90
2021/10/29 06:40:49;;;;;;;46.28;33.15;;;;;;;;;;4825826;29;20098;-92
2021/10/29 06:43:31;;;;;;;46.10;31.17;;;;;;;;;;4826593;29;20074;-91
2021/10/29 07:40:20;;;;;;;38.13;27.73;;;;;;;;;;4884729;29;20518;-89
2021/10/29 07:45:20;;;;;;;44.15;29.85;;;;;;;;;;4886175;29;20056;-90
2021/10/29 07:47:46;;;;;;;38.78;28.58;;;;;;;;;;4883413;29;20488;-89
2021/10/29 07:50:13;;;;;;;39.10;29.88;;;;;;;;;;4884274;29;20037;-89
2021/10/29 07:52:40;;;;;;;35.45;27.52;;;;;;;;;;4883512;29;20061;-90
2021/10/29 07:55:08;;;;;;;41.92;28.80;;;;;;;;;;4884013;29;20069;-90
2021/10/29 07:57:38;;;;;;;42.67;29.38;;;;;;;;;;4883669;29;20564;-91
2021/10/29 08:00:05;;;;;;;42.25;29.38;;;;;;;;;;4882444;29;20036;-90
2021/10/29 08:02:32;;;;;;;43.83;29.38;;;;;;;;;;4881832;29;20052;-91
2021/10/29 08:04:58;;;;;;;36.95;27.42;;;;;;;;;;4883242;29;20029;-91
2021/10/29 08:07:24;;;;;;;36.85;27.50;;;;;;;;;;4881364;29;20052;-91
2021/10/29 08:09:50;;;;;;;36.13;27.98;;;;;;;;;;4882225;29;20021;-89
2021/10/29 08:12:19;;;;;;;38.35;27.58;;;;;;;;;;4881292;29;20499;-89
2021/10/29 08:14:46;;;;;;;32.53;25.92;;;;;;;;;;4866989;29;20025;-90
2021/10/29 08:17:12;;;;;;;35.10;25.83;;;;;;;;;;4867116;29;20096;-89
2021/10/29 08:19:39;;;;;;;38.08;28.27;;;;;;;;;;4868374;29;20029;-89
2021/10/29 08:22:05;;;;;;;38.90;27.65;;;;;;;;;;4866319;29;20148;-90
2021/10/29 08:24:32;;;;;;;38.05;27.90;;;;;;;;;;4882228;29;20037;-88
2021/10/29 08:26:59;;;;;;;38.92;27.52;;;;;;;;;;4881163;29;20054;-91
2021/10/29 08:29:28;;;;;;;37.97;27.77;;;;;;;;;;4882468;29;20053;-90
2021/10/29 08:31:54;;;;;;;34.90;27.17;;;;;;;;;;4881363;29;20033;-89
2021/10/29 08:34:24;;;;;;;35.78;27.30;;;;;;;;;;4884639;29;20021;-90
2021/10/29 08:36:59;;;;;;;34.08;26.08;;;;;;;;;;4884866;29;20029;-90
2021/10/29 08:39:26;;;;;;;39.83;27.08;;;;;;;;;;4881820;29;20448;-90
2021/10/29 08:41:52;;;;;;;37.08;28.08;;;;;;;;;;4884119;29;20479;-90
2021/10/29 08:44:18;;;;;;;37.08;26.50;;;;;;;;;;4884469;29;20037;-88
2021/10/29 08:46:45;;;;;;;35.42;25.30;;;;;;;;;;4870142;29;20025;-89
2021/10/29 08:49:13;;;;;;;35.28;26.38;;;;;;;;;;4883829;29;20048;-87
2021/10/29 08:51:39;;;;;;;38.33;26.02;;;;;;;;;;4883100;29;20033;-89
2021/10/29 08:54:06;;;;;;;34.45;27.23;;;;;;;;;;4886329;29;20387;-88
2021/10/29 08:56:33;;;;;;;34.80;25.65;;;;;;;;;;4884073;29;20044;-88
2021/10/29 08:59:10;;;;;;;35.47;24.80;;;;;;;;;;4883191;29;20029;-88
2021/10/29 09:01:56;;;;;;;34.15;25.73;;;;;;;;;;4881132;29;20555;-88
2021/10/29 09:04:30;;;;;;;31.25;24.30;;;;;;;;;;4881884;29;20028;-89
2021/10/29 09:32:06;;;;;;;33.90;23.10;;;;;;;;;;4860679;29;20033;-89
2021/10/29 09:34:32;;;;;;;29.70;22.73;;;;;;;;;;4868042;29;20021;-89
2021/10/29 09:36:59;;;;;;;30.58;23.95;;;;;;;;;;4867408;29;20522;-88
2021/10/29 09:39:29;;;;;;;31.10;23.48;;;;;;;;;;4866136;29;20436;-90
2021/10/29 09:42:12;;;;;;;33.60;23.67;;;;;;;;;;4866947;29;20037;-88
2021/10/29 09:44:44;;;;;;;32.17;23.23;;;;;;;;;;4883594;29;20131;-91
2021/10/29 09:47:11;;;;;;;32.38;24.75;;;;;;;;;;4881776;29;20120;-90
2021/10/29 09:49:51;;;;;;;31.10;22.80;;;;;;;;;;4881604;29;20056;-89
2021/10/29 09:52:32;;;;;;;33.58;23.30;;;;;;;;;;4881791;29;20030;-89
2021/10/29 09:57:34;;;;;;;32.50;24.63;;;;;;;;;;4882541;29;20056;-90
2021/10/29 10:00:21;;;;;;;29.88;23.58;;;;;;;;;;4866281;29;20385;-91
2021/10/29 10:02:47;;;;;;;32.83;23.52;;;;;;;;;;4866949;29;20033;-91
2021/10/29 10:05:14;;;;;;;35.25;24.27;;;;;;;;;;4882917;29;20025;-90
2021/10/29 10:07:46;;;;;;;32.75;25.20;;;;;;;;;;4883813;29;20068;-91
2021/10/29 10:10:13;;;;;;;34.88;25.17;;;;;;;;;;4882110;29;20029;-89
2021/10/29 10:12:43;;;;;;;33.58;25.30;;;;;;;;;;4882442;29;20036;-88
2021/10/29 10:15:10;;;;;;;39.35;26.92;;;;;;;;;;4882215;29;20033;-90
2021/10/29 10:17:36;;;;;;;36.10;27.17;;;;;;;;;;4866494;29;20077;-89
2021/10/29 10:20:04;;;;;;;33.35;25.67;;;;;;;;;;4866798;29;20119;-90
2021/10/29 10:22:35;;;;;;;34.22;25.88;;;;;;;;;;4879572;29;20044;-90
2021/10/29 10:25:07;;;;;;;34.33;26.60;;;;;;;;;;4885782;29;20512;-89
2021/10/29 10:27:54;;;;;;;30.40;25.08;;;;;;;;;;4889238;29;20025;-89
2021/10/29 10:47:28;;;;;;;31.92;26.48;;;;;;;;;;4889197;29;20104;-90
2021/10/29 10:50:16;;;;;;;31.58;25.02;;;;;;;;;;4900778;29;20052;-91
2021/10/29 10:53:13;;;;;;;31.02;23.83;;;;;;;;;;4904027;29;20119;-88
2021/10/29 10:56:11;;;;;;;32.10;25.17;;;;;;;;;;4902807;29;20032;-88
2021/10/29 11:12:50;;;;;;;30.25;25.27;;;;;;;;;;4883961;29;20029;-89
2021/10/29 11:15:38;;;;;;;32.75;25.13;;;;;;;;;;4892151;29;20024;-91
2021/10/29 11:18:28;;;;;;;26.75;22.85;;;;;;;;;;4901389;29;20035;-90
2021/10/29 11:20:56;;;;;;;30.15;23.00;;;;;;;;;;4899281;29;20443;-89
2021/10/29 11:23:33;;;;;;;29.60;23.33;;;;;;;;;;4900265;29;20040;-89
2021/10/29 11:26:15;;;;;;;31.55;22.73;;;;;;;;;;4902081;29;20039;-90
2021/10/29 11:28:44;;;;;;;32.42;23.05;;;;;;;;;;4902127;29;20033;-90
2021/10/29 11:31:18;;;;;;;26.17;22.08;;;;;;;;;;4901257;29;20115;-90
2021/10/29 11:33:45;;;;;;;26.27;21.98;;;;;;;;;;4901341;29;20049;-87
2021/10/29 11:36:27;;;;;;;29.15;22.90;;;;;;;;;;4901718;29;20053;-90
2021/10/29 11:38:59;;;;;;;26.07;21.27;;;;;;;;;;4901145;29;20056;-90
2021/10/29 11:44:32;;;;;;;25.42;20.90;;;;;;;;;;4876345;29;20028;-90
2021/10/29 11:46:58;;;;;;;23.60;20.42;;;;;;;;;;4884980;29;20032;-89
2021/10/29 11:49:27;;;;;;;26.33;21.25;;;;;;;;;;4900650;29;20032;-89
2021/10/29 11:51:58;;;;;;;26.00;21.75;;;;;;;;;;4902593;29;20084;-91
2021/10/29 11:54:32;;;;;;;29.60;20.85;;;;;;;;;;4902577;29;20037;-91
2021/10/29 12:07:38;;;;;;;27.40;21.83;;;;;;;;;;4901821;29;20050;-90
2021/10/29 12:10:06;;;;;;;26.17;20.58;;;;;;;;;;4899808;29;20061;-89
2021/10/29 12:12:34;;;;;;;24.38;19.42;;;;;;;;;;4896340;29;20029;-91
2021/10/29 12:15:07;;;;;;;23.10;19.75;;;;;;;;;;4889726;29;20040;-88
2021/10/29 12:17:35;;;;;;;22.13;18.92;;;;;;;;;;4911516;29;20036;-89
2021/10/29 12:20:07;;;;;;;24.95;20.52;;;;;;;;;;4901086;29;20052;-89
2021/10/29 12:22:43;;;;;;;25.50;20.02;;;;;;;;;;4885417;29;20064;-89
2021/10/29 12:30:31;;;;;;;23.98;19.40;;;;;;;;;;4899880;29;20120;-89
2021/10/29 13:03:07;;;;;;;21.77;17.50;;;;;;;;;;4899542;29;20099;-89
2021/10/29 13:05:35;;;;;;;22.40;17.45;;;;;;;;;;4897937;29;20031;-88
2021/10/29 13:08:17;;;;;;;22.85;17.27;;;;;;;;;;4898825;29;20025;-88
2021/10/29 13:10:44;;;;;;;24.48;17.70;;;;;;;;;;4898978;29;20081;-88
2021/10/29 13:13:25;;;;;;;23.73;17.98;;;;;;;;;;4882641;29;20065;-90
2021/10/29 13:15:56;;;;;;;22.58;17.27;;;;;;;;;;4882223;29;20024;-88
2021/10/29 13:18:26;;;;;;;28.73;19.60;;;;;;;;;;4898637;29;20063;-88
2021/10/29 13:51:19;;;;;;;23.27;19.80;;;;;;;;;;4841559;29;20037;-88
2021/10/29 13:56:44;;;;;;;26.80;19.63;;;;;;;;;;4841112;29;20040;-88
2021/10/29 13:59:26;;;;;;;;;;;;;;;;;;4825764;29;20030;-90
2021/10/29 14:31:32;;;;;;;23.95;19.30;;;;;;;;;;4906627;29;20040;-85
2021/10/29 14:34:13;;;;;;;25.77;19.23;;;;;;;;;;4900898;29;20498;-87
2021/10/29 14:36:54;;;;;;;23.65;17.85;;;;;;;;;;4900351;29;20120;-88
2021/10/29 14:39:36;;;;;;;25.52;20.13;;;;;;;;;;4900605;29;20029;-86
2021/10/29 14:45:06;;;;;;;29.85;22.40;;;;;;;;;;4861493;29;20543;-87
2021/10/29 14:48:01;;;;;;;28.92;21.63;;;;;;;;;;4846636;29;20492;-87
2021/10/29 15:06:39;;;;;;;24.88;19.45;;;;;;;;;;4862037;29;20121;-89
2021/10/29 15:45:33;;;;;;;25.42;17.70;;;;;;;;;;4900606;29;20032;-90
2021/10/29 15:47:59;;;;;;;23.63;17.23;;;;;;;;;;4897428;29;20040;-91
2021/10/29 15:50:36;;;;;;;22.25;16.40;;;;;;;;;;4899105;29;20483;-91
2021/10/29 15:53:06;;;;;;;21.63;15.95;;;;;;;;;;4899848;29;20040;-91
2021/10/29 15:55:47;;;;;;;22.15;16.08;;;;;;;;;;4883568;29;20402;-90
2021/10/29 16:01:15;;;;;;;22.50;16.85;;;;;;;;;;4900095;29;20029;-91
2021/10/29 16:17:01;;;;;;;21.02;16.38;;;;;;;;;;4883083;29;20450;-90
2021/10/29 16:17:29;;;;;;;22.40;16.65;;;;;;;;;;4882010;29;20137;-87
2021/10/29 16:19:55;;;;;;;23.60;17.35;;;;;;;;;;4880109;29;20033;-87
2021/10/29 16:22:24;;;;;;;24.35;19.13;;;;;;;;;;4880039;29;20060;-87
2021/10/29 16:30:12;;;;;;;24.02;19.45;;;;;;;;;;4860432;29;20468;-87
2021/10/29 16:35:20;;;;;;;30.55;23.92;;;;;;;;;;4860394;29;20552;-91
2021/10/29 16:37:46;;;;;;;29.98;23.23;;;;;;;;;;4844160;29;20114;-91
2021/10/29 16:40:13;;;;;;;34.42;25.98;;;;;;;;;;4844353;29;20070;-91
2021/10/29 16:42:40;;;;;;;29.05;24.35;;;;;;;;;;4860366;29;20484;-90
2021/10/29 16:45:07;;;;;;;28.33;22.90;;;;;;;;;;4859974;29;20038;-89
2021/10/29 16:47:33;;;;;;;29.55;22.35;;;;;;;;;;4859918;29;20029;-92
2021/10/29 16:49:59;;;;;;;32.53;25.08;;;;;;;;;;4844162;29;20038;-91
2021/10/29 16:52:28;;;;;;;31.52;24.42;;;;;;;;;;4844643;29;20094;-91
2021/10/29 16:54:54;;;;;;;30.55;23.08;;;;;;;;;;4860425;29;20033;-90
2021/10/29 16:57:20;;;;;;;30.60;25.23;;;;;;;;;;4844193;29;20128;-92
2021/10/29 17:00:05;;;;;;;29.17;23.00;;;;;;;;;;4845289;29;20057;-91
2021/10/29 17:02:31;;;;;;;28.30;22.63;;;;;;;;;;4843866;29;20120;-91
2021/10/29 17:04:57;;;;;;;29.85;23.33;;;;;;;;;;4871149;29;20128;-90
2021/10/29 17:07:27;;;;;;;28.42;23.65;;;;;;;;;;4882399;29;20020;-90
2021/10/29 17:09:53;;;;;;;28.40;22.33;;;;;;;;;;4882617;29;20029;-91
2021/10/29 17:12:29;;;;;;;31.17;23.67;;;;;;;;;;4882629;29;20033;-92
2021/10/29 17:14:55;;;;;;;28.48;23.55;;;;;;;;;;4899428;29;20491;-92
2021/10/29 17:17:21;;;;;;;32.15;23.27;;;;;;;;;;4897589;29;20115;-90
2021/10/29 17:19:47;;;;;;;31.02;23.90;;;;;;;;;;4898183;29;20043;-91
2021/10/29 17:22:13;;;;;;;29.52;23.77;;;;;;;;;;4897175;29;20136;-91
2021/10/29 17:24:39;;;;;;;27.88;22.88;;;;;;;;;;4897980;29;20025;-91
2021/10/29 17:27:06;;;;;;;29.27;23.05;;;;;;;;;;4898068;29;20028;-91
2021/10/29 17:29:33;;;;;;;25.88;22.33;;;;;;;;;;4897473;29;20048;-92
2021/10/29 17:32:02;;;;;;;33.20;24.65;;;;;;;;;;4896665;29;20040;-92
2021/10/29 17:34:29;;;;;;;31.63;23.55;;;;;;;;;;4897597;29;20024;-92
2021/10/29 17:36:55;;;;;;;30.65;24.33;;;;;;;;;;4897614;29;20098;-92
2021/10/29 17:39:23;;;;;;;29.83;23.08;;;;;;;;;;4897267;29;20028;-91
2021/10/29 17:41:51;;;;;;;34.05;25.23;;;;;;;;;;4897052;29;20029;-91
2021/10/29 17:44:17;;;;;;;32.25;25.05;;;;;;;;;;4881585;29;20047;-90
2021/10/29 17:46:43;;;;;;;32.03;25.10;;;;;;;;;;4897201;29;20040;-91
2021/10/29 17:49:11;;;;;;;31.83;25.50;;;;;;;;;;4897427;29;20081;-91
2021/10/29 17:51:38;;;;;;;34.45;27.48;;;;;;;;;;4897626;29;20040;-91
2021/10/29 17:54:04;;;;;;;35.88;26.52;;;;;;;;;;4898044;29;20025;-91
2021/10/29 17:56:34;;;;;;;29.85;24.25;;;;;;;;;;4881599;29;20033;-92
2021/10/29 17:59:00;;;;;;;31.70;23.55;;;;;;;;;;4881547;29;20105;-92
2021/10/29 18:01:26;;;;;;;30.73;22.80;;;;;;;;;;4881263;29;20672;-92
2021/10/29 18:03:52;;;;;;;31.23;24.40;;;;;;;;;;4881812;29;20036;-92
2021/10/29 18:06:18;;;;;;;31.73;23.35;;;;;;;;;;4898391;29;20032;-91
2021/10/29 18:09:08;;;;;;;33.10;24.77;;;;;;;;;;4881526;29;20401;-91
2021/10/29 18:11:35;;;;;;;32.25;24.73;;;;;;;;;;4898159;29;20032;-91
2021/10/29 18:14:01;;;;;;;32.95;25.27;;;;;;;;;;4898782;29;20387;-92
2021/10/29 18:16:28;;;;;;;29.90;22.88;;;;;;;;;;4898313;29;20398;-90
2021/10/29 18:18:57;;;;;;;30.58;24.27;;;;;;;;;;4881261;29;20032;-91
2021/10/29 18:21:24;;;;;;;32.00;24.02;;;;;;;;;;4881401;29;20119;-92
2021/10/29 18:23:54;;;;;;;30.48;23.85;;;;;;;;;;4881702;29;20435;-92
2021/10/29 18:26:28;;;;;;;30.55;23.73;;;;;;;;;;4881348;29;20024;-90
2021/10/29 18:28:59;;;;;;;30.63;23.55;;;;;;;;;;4898021;29;20029;-90
2021/10/29 18:31:26;;;;;;;30.00;23.92;;;;;;;;;;4898432;29;20020;-91
2021/10/29 18:33:53;;;;;;;32.85;25.60;;;;;;;;;;4880978;29;20056;-91
2021/10/29 18:36:19;;;;;;;33.58;25.42;;;;;;;;;;4896929;29;20029;-92
2021/10/29 18:38:45;;;;;;;32.38;25.75;;;;;;;;;;4896732;29;20033;-92
2021/10/29 18:41:12;;;;;;;34.72;25.98;;;;;;;;;;4881876;29;20025;-91
2021/10/29 18:43:38;;;;;;;32.85;25.48;;;;;;;;;;4881636;29;20498;-91
2021/10/29 18:46:04;;;;;;;33.05;25.90;;;;;;;;;;4897779;29;20116;-92
2021/10/29 18:48:30;;;;;;;32.75;25.63;;;;;;;;;;4899621;29;20029;-90
2021/10/29 18:50:57;;;;;;;34.40;26.90;;;;;;;;;;4884618;29;20035;-92
2021/10/29 18:53:23;;;;;;;34.08;27.08;;;;;;;;;;4884391;29;20398;-90
2021/10/29 18:55:50;;;;;;;34.65;26.08;;;;;;;;;;4884186;29;20021;-90
2021/10/29 18:58:16;;;;;;;34.20;27.02;;;;;;;;;;4884384;29;20035;-90
2021/10/29 19:00:45;;;;;;;33.75;27.20;;;;;;;;;;4884630;29;20088;-92
2021/10/29 19:03:11;;;;;;;35.92;27.98;;;;;;;;;;4884406;29;20123;-91
2021/10/29 19:05:37;;;;;;;31.10;25.55;;;;;;;;;;4884682;29;20072;-91
2021/10/29 19:08:03;;;;;;;32.75;26.73;;;;;;;;;;4883613;29;20081;-91
2021/10/29 19:10:32;;;;;;;35.38;26.17;;;;;;;;;;4901003;29;20104;-91
2021/10/29 19:12:59;;;;;;;33.03;25.63;;;;;;;;;;4884252;29;20497;-92
2021/10/29 19:15:25;;;;;;;31.10;25.48;;;;;;;;;;4884530;29;20064;-92
2021/10/29 19:17:51;;;;;;;32.58;26.08;;;;;;;;;;4884071;29;20020;-92
2021/10/29 19:20:18;;;;;;;32.55;25.05;;;;;;;;;;4901775;29;20079;-91
2021/10/29 19:22:44;;;;;;;32.22;23.90;;;;;;;;;;4900991;29;20055;-91
2021/10/29 19:25:10;;;;;;;29.15;23.20;;;;;;;;;;4900216;29;20025;-91
2021/10/29 19:27:40;;;;;;;30.58;22.83;;;;;;;;;;4900985;29;20025;-92
2021/10/29 19:30:12;;;;;;;31.10;23.55;;;;;;;;;;4898936;29;20032;-92
2021/10/29 19:32:40;;;;;;;33.50;24.67;;;;;;;;;;4900187;29;20040;-92
2021/10/29 19:35:17;;;;;;;33.78;25.88;;;;;;;;;;4899899;29;20043;-90
2021/10/29 19:43:04;;;;;;;38.72;27.75;;;;;;;;;;4901751;29;20047;-92
2021/10/29 19:45:30;;;;;;;34.67;26.73;;;;;;;;;;4884939;29;20120;-90
2021/10/29 19:48:00;;;;;;;36.85;27.35;;;;;;;;;;4900419;29;20028;-92